Time;durP1;ratioP1;P1;durP2;ratioP2;P2;SDS_P1;SDS_P2;PMS_P1;PMS_P2;Temp;Humidity;BMP_temperature;BMP_pressure;BME280_temperature;BME280_humidity;BME280_pressure;Samples;Min_cycle;Max_cycle;Signal;HPM_P1;HPM_P2
2023/07/13 00:00:19;;;;;;;;;;;;;;;;;;5022078;28;19921;-81
2023/07/13 00:02:45;;;;;;;;;;;;;;;;;;5005960;28;19921;-80
2023/07/13 00:05:11;;;;;;;;;;;;;;;;;;5006790;28;19921;-81
2023/07/13 00:07:37;;;;;;;;;;;;;;;;;;5023736;28;19921;-81
2023/07/13 00:10:03;;;;;;;;;;;;;;;;;;5022447;28;19929;-80
2023/07/13 00:12:29;;;;;;;;;;;;;;;;;;5023819;28;20311;-81
2023/07/13 00:14:55;;;;;;;;;;;;;;;;;;5022389;28;20384;-80
2023/07/13 00:17:21;;;;;;;;;;;;;;;;;;5023637;28;19921;-81
2023/07/13 00:19:46;;;;;;;;;;;;;;;;;;5006235;28;19948;-80
2023/07/13 00:22:12;;;;;;;;;;;;;;;;;;5006829;28;19984;-80
2023/07/13 00:24:41;;;;;;;;;;;;;;;;;;5008864;28;19921;-80
2023/07/13 00:27:07;;;;;;;;;;;;;;;;;;5009322;28;19921;-82
2023/07/13 00:29:33;;;;;;;;;;;;;;;;;;5008303;28;19944;-80
2023/07/13 00:31:59;;;;;;;;;;;;;;;;;;5011101;28;19932;-82
2023/07/13 00:37:29;;;;;;;;;;;;;;;;;;5050986;28;19955;-81
2023/07/13 00:39:55;;;;;;;;;;;;;;;;;;5008437;28;19921;-82
2023/07/13 00:42:21;;;;;;;;;;;;;;;;;;5009885;28;19928;-82
2023/07/13 00:44:47;;;;;;;;;;;;;;;;;;5010679;28;19921;-82
2023/07/13 00:47:16;;;;;;;;;;;;;;;;;;5047155;28;19999;-81
2023/07/13 00:49:42;;;;;;;;;;;;;;;;;;5027353;28;19983;-82
2023/07/13 00:52:08;;;;;;;;;;;;;;;;;;5009515;28;19925;-81
2023/07/13 00:54:33;;;;;;;;;;;;;;;;;;5010150;28;19963;-81
2023/07/13 00:56:59;;;;;;;;;;;;;;;;;;5008776;28;19925;-81
2023/07/13 00:59:25;;;;;;;;;;;;;;;;;;5009001;28;19961;-82
2023/07/13 01:01:52;;;;;;;;;;;;;;;;;;5009114;28;19928;-81
2023/07/13 01:04:17;;;;;;;;;;;;;;;;;;5026009;28;19921;-82
2023/07/13 01:06:43;;;;;;;;;;;;;;;;;;5009356;28;19936;-80
2023/07/13 01:09:10;;;;;;;;;;;;;;;;;;5009797;28;19932;-80
2023/07/13 01:11:36;;;;;;;;;;;;;;;;;;5009417;28;20004;-81
2023/07/13 01:14:02;;;;;;;;;;;;;;;;;;5009174;28;19964;-80
2023/07/13 01:16:28;;;;;;;;;;;;;;;;;;5008582;28;19971;-81
2023/07/13 01:18:58;;;;;;;;;;;;;;;;;;5024600;28;19921;-81
2023/07/13 01:21:24;;;;;;;;;;;;;;;;;;5009376;28;19921;-82
2023/07/13 01:23:50;;;;;;;;;;;;;;;;;;5009647;28;20008;-81
2023/07/13 01:26:17;;;;;;;;;;;;;;;;;;5024715;28;19987;-80
2023/07/13 01:28:43;;;;;;;;;;;;;;;;;;5024921;28;19925;-81
2023/07/13 01:31:09;;;;;;;;;;;;;;;;;;5008524;28;19929;-81
2023/07/13 01:33:35;;;;;;;;;;;;;;;;;;5010299;28;19928;-81
2023/07/13 01:36:02;;;;;;;;;;;;;;;;;;5023969;28;19921;-81
2023/07/13 01:38:28;;;;;;;;;;;;;;;;;;5026496;28;19921;-81
2023/07/13 01:40:54;;;;;;;;;;;;;;;;;;5009035;28;19928;-81
2023/07/13 01:43:21;;;;;;;;;;;;;;;;;;5009734;28;19925;-80
2023/07/13 01:45:47;;;;;;;;;;;;;;;;;;5008997;28;19921;-82
2023/07/13 01:48:14;;;;;;;;;;;;;;;;;;5010542;28;20391;-82
2023/07/13 01:50:40;;;;;;;;;;;;;;;;;;5008501;28;20276;-82
2023/07/13 01:53:06;;;;;;;;;;;;;;;;;;5009914;28;20008;-82
2023/07/13 01:55:32;;;;;;;;;;;;;;;;;;5006645;28;19975;-80
2023/07/13 01:57:58;;;;;;;;;;;;;;;;;;5025357;28;19944;-82
2023/07/13 02:03:28;;;;;;;;;;;;;;;;;;5051390;28;19960;-81
2023/07/13 02:05:54;;;;;;;;;;;;;;;;;;5007968;28;19976;-80
2023/07/13 02:08:20;;;;;;;;;;;;;;;;;;5008212;28;19921;-82
2023/07/13 02:10:46;;;;;;;;;;;;;;;;;;5024808;28;19925;-82
2023/07/13 02:13:12;;;;;;;;;;;;;;;;;;5007066;28;19981;-81
2023/07/13 02:15:38;;;;;;;;;;;;;;;;;;5006245;28;19921;-81
2023/07/13 02:18:04;;;;;;;;;;;;;;;;;;5008843;28;19929;-79
2023/07/13 02:20:29;;;;;;;;;;;;;;;;;;5004189;28;19925;-81
2023/07/13 02:22:55;;;;;;;;;;;;;;;;;;5023946;28;19960;-82
2023/07/13 02:25:21;;;;;;;;;;;;;;;;;;5023850;28;19928;-82
2023/07/13 02:27:47;;;;;;;;;;;;;;;;;;5008318;28;19925;-82
2023/07/13 02:30:13;;;;;;;;;;;;;;;;;;5024297;28;19921;-82
2023/07/13 02:32:39;;;;;;;;;;;;;;;;;;5023616;28;19925;-80
2023/07/13 02:35:05;;;;;;;;;;;;;;;;;;5006998;28;20291;-82
2023/07/13 02:37:31;;;;;;;;;;;;;;;;;;5023113;28;19922;-81
2023/07/13 02:39:57;;;;;;;;;;;;;;;;;;5024670;28;19921;-81
2023/07/13 02:42:23;;;;;;;;;;;;;;;;;;5007942;28;19925;-81
2023/07/13 02:44:50;;;;;;;;;;;;;;;;;;5007965;28;19976;-82
2023/07/13 02:47:16;;;;;;;;;;;;;;;;;;5007545;28;19977;-81
2023/07/13 02:49:44;;;;;;;;;;;;;;;;;;5008957;28;19980;-82
2023/07/13 02:52:09;;;;;;;;;;;;;;;;;;5006912;28;19966;-80
2023/07/13 02:54:35;;;;;;;;;;;;;;;;;;5007403;28;19921;-81
2023/07/13 02:57:01;;;;;;;;;;;;;;;;;;5010902;28;19927;-79
2023/07/13 02:59:27;;;;;;;;;;;;;;;;;;5008945;28;20376;-83
2023/07/13 03:01:53;;;;;;;;;;;;;;;;;;5005044;28;19960;-82
2023/07/13 03:04:19;;;;;;;;;;;;;;;;;;5006951;28;19925;-82
2023/07/13 03:06:45;;;;;;;;;;;;;;;;;;5007015;28;20003;-81
2023/07/13 03:09:12;;;;;;;;;;;;;;;;;;5023229;28;19975;-80
2023/07/13 03:11:38;;;;;;;;;;;;;;;;;;5007879;28;19932;-81
2023/07/13 03:14:04;;;;;;;;;;;;;;;;;;5010049;28;19921;-82
2023/07/13 03:16:30;;;;;;;;;;;;;;;;;;5007345;28;20008;-82
2023/07/13 03:18:56;;;;;;;;;;;;;;;;;;5008955;28;19922;-82
2023/07/13 03:21:25;;;;;;;;;;;;;;;;;;5009626;28;19967;-81
2023/07/13 03:23:51;;;;;;;;;;;;;;;;;;5025084;28;19928;-81
2023/07/13 03:26:18;;;;;;;;;;;;;;;;;;5024040;28;19921;-80
2023/07/13 03:28:47;;;;;;;;;;;;;;;;;;5025085;28;19921;-83
2023/07/13 03:31:13;;;;;;;;;;;;;;;;;;5009078;28;19952;-81
2023/07/13 03:33:39;;;;;;;;;;;;;;;;;;5011062;28;19921;-83
2023/07/13 03:36:05;;;;;;;;;;;;;;;;;;5031006;28;19927;-82
2023/07/13 03:38:34;;;;;;;;;;;;;;;;;;5013676;28;20444;-83
2023/07/13 03:41:03;;;;;;;;;;;;;;;;;;5029135;28;20303;-82
2023/07/13 03:43:43;;;;;;;;;;;;;;;;;;5012753;28;19920;-82
2023/07/13 03:46:10;;;;;;;;;;;;;;;;;;5010843;28;19931;-84
2023/07/13 03:48:36;;;;;;;;;;;;;;;;;;5018846;28;19921;-82
2023/07/13 03:51:02;;;;;;;;;;;;;;;;;;5030533;28;19932;-82
2023/07/13 03:53:28;;;;;;;;;;;;;;;;;;5013639;28;19921;-81
2023/07/13 03:55:54;;;;;;;;;;;;;;;;;;5027406;28;19983;-82
2023/07/13 03:58:20;;;;;;;;;;;;;;;;;;5028092;28;19921;-82
2023/07/13 04:00:46;;;;;;;;;;;;;;;;;;5012415;28;19921;-82
2023/07/13 04:03:12;;;;;;;;;;;;;;;;;;5027177;28;19928;-82
2023/07/13 04:05:40;;;;;;;;;;;;;;;;;;5011603;28;19929;-83
2023/07/13 04:08:06;;;;;;;;;;;;;;;;;;5013283;28;19940;-82
2023/07/13 04:10:35;;;;;;;;;;;;;;;;;;5027763;28;19932;-82
2023/07/13 04:16:05;;;;;;;;;;;;;;;;;;5039266;28;19920;-82
2023/07/13 04:18:31;;;;;;;;;;;;;;;;;;5025895;28;20036;-82
2023/07/13 04:20:58;;;;;;;;;;;;;;;;;;5008449;28;19956;-82
2023/07/13 04:23:24;;;;;;;;;;;;;;;;;;5010007;28;19929;-80
2023/07/13 04:25:52;;;;;;;;;;;;;;;;;;5011795;28;19925;-81
2023/07/13 04:28:18;;;;;;;;;;;;;;;;;;5008555;28;19921;-82
2023/07/13 04:30:44;;;;;;;;;;;;;;;;;;5006537;28;19956;-82
2023/07/13 04:33:12;;;;;;;;;;;;;;;;;;5024105;28;19925;-82
2023/07/13 04:35:38;;;;;;;;;;;;;;;;;;5021757;28;19928;-82
2023/07/13 04:38:03;;;;;;;;;;;;;;;;;;5025632;28;19921;-83
2023/07/13 04:40:29;;;;;;;;;;;;;;;;;;5009824;28;19925;-83
2023/07/13 04:42:55;;;;;;;;;;;;;;;;;;5009243;28;19925;-82
2023/07/13 04:45:23;;;;;;;;;;;;;;;;;;5006685;28;19921;-81
2023/07/13 04:47:52;;;;;;;;;;;;;;;;;;4996621;28;19925;-83
2023/07/13 04:50:22;;;;;;;;;;;;;;;;;;5020502;28;19925;-80
2023/07/13 04:52:49;;;;;;;;;;;;;;;;;;5024505;28;20007;-83
2023/07/13 04:55:15;;;;;;;;;;;;;;;;;;5026896;28;19920;-83
2023/07/13 04:57:41;;;;;;;;;;;;;;;;;;5028062;28;19925;-84
2023/07/13 05:00:07;;;;;;;;;;;;;;;;;;5025721;28;19921;-84
2023/07/13 05:02:35;;;;;;;;;;;;;;;;;;5027514;28;19921;-84
2023/07/13 05:05:01;;;;;;;;;;;;;;;;;;5008728;28;19921;-81
2023/07/13 05:07:27;;;;;;;;;;;;;;;;;;5007779;28;19927;-83
2023/07/13 05:09:53;;;;;;;;;;;;;;;;;;5021496;28;19974;-83
2023/07/13 05:12:19;;;;;;;;;;;;;;;;;;5024383;28;20308;-83
2023/07/13 05:15:02;;;;;;;;;;;;;;;;;;5023777;28;20328;-83
2023/07/13 05:17:32;;;;;;;;;;;;;;;;;;5005874;28;19921;-82
2023/07/13 05:19:58;;;;;;;;;;;;;;;;;;5005366;28;19921;-84
2023/07/13 05:22:24;;;;;;;;;;;;;;;;;;5002590;28;19971;-84
2023/07/13 05:24:49;;;;;;;;;;;;;;;;;;5018548;28;19925;-83
2023/07/13 05:27:15;;;;;;;;;;;;;;;;;;5000318;28;19928;-83
2023/07/13 05:29:44;;;;;;;;;;;;;;;;;;5004640;28;19960;-81
2023/07/13 05:32:10;;;;;;;;;;;;;;;;;;5003487;28;20382;-84
2023/07/13 05:34:35;;;;;;;;;;;;;;;;;;5004555;28;19933;-84
2023/07/13 05:37:01;;;;;;;;;;;;;;;;;;5012031;28;19925;-83
2023/07/13 05:39:27;;;;;;;;;;;;;;;;;;5025294;28;19925;-84
2023/07/13 05:41:53;;;;;;;;;;;;;;;;;;5019687;28;19921;-82
2023/07/13 05:44:19;;;;;;;;;;;;;;;;;;5020272;28;19925;-83
2023/07/13 05:46:45;;;;;;;;;;;;;;;;;;5019908;28;19921;-82
2023/07/13 05:49:11;;;;;;;;;;;;;;;;;;5020336;28;19925;-82
2023/07/13 05:51:37;;;;;;;;;;;;;;;;;;5019750;28;20020;-82
2023/07/13 05:54:03;;;;;;;;;;;;;;;;;;5019682;28;19975;-82
2023/07/13 05:56:29;;;;;;;;;;;;;;;;;;5019565;28;19925;-83
2023/07/13 05:58:55;;;;;;;;;;;;;;;;;;5020670;28;19921;-83
2023/07/13 06:01:22;;;;;;;;;;;;;;;;;;5020411;28;20025;-83
2023/07/13 06:03:51;;;;;;;;;;;;;;;;;;5038764;28;19925;-83
2023/07/13 06:09:21;;;;;;;;;;;;;;;;;;5041673;28;19980;-82
2023/07/13 06:11:47;;;;;;;;;;;;;;;;;;5005799;28;19960;-83
2023/07/13 06:14:13;;;;;;;;;;;;;;;;;;5002359;28;19925;-83
2023/07/13 06:16:39;;;;;;;;;;;;;;;;;;5002046;28;20358;-84
2023/07/13 06:19:06;;;;;;;;;;;;;;;;;;5019191;28;20292;-84
2023/07/13 06:21:31;;;;;;;;;;;;;;;;;;5002252;28;20372;-83
2023/07/13 06:23:57;;;;;;;;;;;;;;;;;;5002883;28;19921;-82
2023/07/13 06:26:23;;;;;;;;;;;;;;;;;;5002040;28;20386;-84
2023/07/13 06:28:49;;;;;;;;;;;;;;;;;;5001341;28;19924;-83
2023/07/13 06:31:15;;;;;;;;;;;;;;;;;;5002268;28;19925;-84
2023/07/13 06:33:41;;;;;;;;;;;;;;;;;;5002102;28;20015;-84
2023/07/13 06:36:07;;;;;;;;;;;;;;;;;;5003057;28;20022;-86
2023/07/13 06:38:34;;;;;;;;;;;;;;;;;;5019552;28;20426;-83
2023/07/13 06:41:00;;;;;;;;;;;;;;;;;;5001989;28;19925;-84
2023/07/13 06:43:26;;;;;;;;;;;;;;;;;;5003097;28;20008;-87
2023/07/13 06:45:52;;;;;;;;;;;;;;;;;;5003414;28;19959;-85
2023/07/13 06:48:18;;;;;;;;;;;;;;;;;;5001961;28;19921;-85
2023/07/13 06:50:44;;;;;;;;;;;;;;;;;;5002183;28;19948;-87
2023/07/13 06:53:09;;;;;;;;;;;;;;;;;;5018413;28;19925;-86
2023/07/13 06:55:36;;;;;;;;;;;;;;;;;;5019470;28;19929;-87
2023/07/13 06:58:02;;;;;;;;;;;;;;;;;;5018714;28;19921;-84
2023/07/13 07:00:28;;;;;;;;;;;;;;;;;;5000890;28;19921;-83
2023/07/13 07:02:54;;;;;;;;;;;;;;;;;;5002100;28;20377;-87
2023/07/13 07:05:21;;;;;;;;;;;;;;;;;;5001516;28;20371;-82
2023/07/13 07:07:47;;;;;;;;;;;;;;;;;;5002363;28;20364;-82
2023/07/13 07:10:13;;;;;;;;;;;;;;;;;;5000818;28;19921;-82
2023/07/13 07:12:39;;;;;;;;;;;;;;;;;;5017322;28;20525;-84
2023/07/13 07:15:05;;;;;;;;;;;;;;;;;;5017046;28;19921;-82
2023/07/13 07:17:31;;;;;;;;;;;;;;;;;;5001531;28;19953;-85
2023/07/13 07:19:57;;;;;;;;;;;;;;;;;;5018117;28;19950;-84
2023/07/13 07:22:26;;;;;;;;;;;;;;;;;;5016371;28;19921;-84
2023/07/13 07:24:52;;;;;;;;;;;;;;;;;;5002946;28;20295;-84
2023/07/13 07:27:18;;;;;;;;;;;;;;;;;;5002475;28;19928;-84
2023/07/13 07:29:44;;;;;;;;;;;;;;;;;;5007850;28;19921;-84
2023/07/13 07:32:10;;;;;;;;;;;;;;;;;;5021913;28;19972;-84
2023/07/13 07:34:36;;;;;;;;;;;;;;;;;;5019949;28;20004;-84
2023/07/13 07:37:02;;;;;;;;;;;;;;;;;;5022720;28;19964;-83
2023/07/13 07:39:28;;;;;;;;;;;;;;;;;;5021330;28;19971;-83
2023/07/13 07:41:54;;;;;;;;;;;;;;;;;;5021352;28;20398;-86
2023/07/13 07:44:20;;;;;;;;;;;;;;;;;;5022373;28;19931;-83
2023/07/13 07:46:46;;;;;;;;;;;;;;;;;;5021689;28;19921;-83
2023/07/13 07:49:12;;;;;;;;;;;;;;;;;;5013496;28;19925;-86
2023/07/13 07:54:11;;;;;;;;;;;;;;;;;;5020888;28;19925;-83
2023/07/13 07:56:37;;;;;;;;;;;;;;;;;;5020931;28;20007;-84
2023/07/13 07:59:03;;;;;;;;;;;;;;;;;;5018292;28;19928;-84
2023/07/13 08:01:29;;;;;;;;;;;;;;;;;;5018617;28;19921;-83
2023/07/13 08:03:55;;;;;;;;;;;;;;;;;;5018258;28;19940;-84
2023/07/13 08:06:21;;;;;;;;;;;;;;;;;;5018550;28;19928;-84
2023/07/13 08:08:47;;;;;;;;;;;;;;;;;;5018352;28;20004;-84
2023/07/13 08:11:13;;;;;;;;;;;;;;;;;;5017923;28;19971;-85
2023/07/13 08:13:40;;;;;;;;;;;;;;;;;;5018107;28;19921;-86
2023/07/13 08:16:06;;;;;;;;;;;;;;;;;;5001381;28;19990;-85
2023/07/13 08:18:32;;;;;;;;;;;;;;;;;;5016710;28;20439;-85
2023/07/13 08:20:58;;;;;;;;;;;;;;;;;;5020000;28;19921;-85
2023/07/13 08:23:24;;;;;;;;;;;;;;;;;;5021540;28;19983;-87
2023/07/13 08:25:50;;;;;;;;;;;;;;;;;;5023201;28;20402;-84
2023/07/13 08:28:16;;;;;;;;;;;;;;;;;;5019924;28;19921;-84
2023/07/13 08:30:42;;;;;;;;;;;;;;;;;;5022616;28;20577;-85
2023/07/13 08:33:08;;;;;;;;;;;;;;;;;;5020199;28;20015;-82
2023/07/13 08:35:34;;;;;;;;;;;;;;;;;;5023220;28;19921;-86
2023/07/13 08:38:00;;;;;;;;;;;;;;;;;;5023481;28;19933;-86
2023/07/13 08:40:32;;;;;;;;;;;;;;;;;;5020988;28;19968;-84
2023/07/13 08:42:58;;;;;;;;;;;;;;;;;;5020984;28;19970;-84
2023/07/13 08:45:24;;;;;;;;;;;;;;;;;;5019306;28;19921;-87
2023/07/13 08:47:50;;;;;;;;;;;;;;;;;;5020782;28;19936;-87
2023/07/13 08:50:16;;;;;;;;;;;;;;;;;;5019366;28;19931;-86
2023/07/13 08:52:42;;;;;;;;;;;;;;;;;;5004974;28;20269;-83
2023/07/13 08:55:08;;;;;;;;;;;;;;;;;;4989117;28;20019;-83
2023/07/13 08:57:34;;;;;;;;;;;;;;;;;;4985684;28;20410;-84
2023/07/13 09:00:00;;;;;;;;;;;;;;;;;;4984548;28;19926;-83
2023/07/13 09:02:29;;;;;;;;;;;;;;;;;;4984585;28;19968;-82
2023/07/13 09:04:55;;;;;;;;;;;;;;;;;;5008921;28;19921;-83
2023/07/13 09:07:21;;;;;;;;;;;;;;;;;;5020506;28;19921;-82
2023/07/13 09:09:47;;;;;;;;;;;;;;;;;;5002879;28;19925;-84
2023/07/13 09:12:13;;;;;;;;;;;;;;;;;;5003698;28;20049;-85
2023/07/13 09:14:39;;;;;;;;;;;;;;;;;;5003164;28;20059;-84
2023/07/13 09:17:05;;;;;;;;;;;;;;;;;;5020112;28;19960;-83
2023/07/13 09:19:32;;;;;;;;;;;;;;;;;;5017134;28;19921;-84
2023/07/13 09:21:59;;;;;;;;;;;;;;;;;;5017639;28;19921;-83
2023/07/13 09:24:25;;;;;;;;;;;;;;;;;;5001393;28;20390;-83
2023/07/13 09:26:53;;;;;;;;;;;;;;;;;;5001296;28;20356;-83
2023/07/13 09:29:19;;;;;;;;;;;;;;;;;;5001331;28;19927;-83
2023/07/13 09:31:44;;;;;;;;;;;;;;;;;;4999595;28;20020;-82
2023/07/13 09:34:10;;;;;;;;;;;;;;;;;;5000761;28;19967;-83
2023/07/13 09:36:36;;;;;;;;;;;;;;;;;;5000560;28;19921;-82
2023/07/13 09:39:03;;;;;;;;;;;;;;;;;;5000705;28;19937;-82
2023/07/13 09:41:29;;;;;;;;;;;;;;;;;;5016083;28;19921;-82
2023/07/13 09:43:55;;;;;;;;;;;;;;;;;;5000246;28;20299;-83
2023/07/13 09:46:22;;;;;;;;;;;;;;;;;;5000870;28;19921;-82
2023/07/13 09:48:49;;;;;;;;;;;;;;;;;;5000114;28;19921;-83
2023/07/13 09:51:16;;;;;;;;;;;;;;;;;;5015915;28;19972;-82
2023/07/13 09:53:43;;;;;;;;;;;;;;;;;;5000474;28;20291;-82
2023/07/13 09:56:09;;;;;;;;;;;;;;;;;;5000498;28;19921;-83
2023/07/13 09:58:35;;;;;;;;;;;;;;;;;;5000258;28;20447;-81
2023/07/13 10:01:02;;;;;;;;;;;;;;;;;;4999965;28;19975;-82
2023/07/13 10:03:30;;;;;;;;;;;;;;;;;;5000450;28;20421;-83
2023/07/13 10:05:56;;;;;;;;;;;;;;;;;;5000353;28;19920;-82
2023/07/13 10:08:22;;;;;;;;;;;;;;;;;;5000159;28;20394;-82
2023/07/13 10:10:48;;;;;;;;;;;;;;;;;;4999364;28;19929;-83
2023/07/13 10:13:14;;;;;;;;;;;;;;;;;;5000103;28;20287;-83
2023/07/13 10:15:41;;;;;;;;;;;;;;;;;;5016280;28;19925;-83
2023/07/13 10:18:06;;;;;;;;;;;;;;;;;;5016163;28;20307;-83
2023/07/13 10:20:32;;;;;;;;;;;;;;;;;;4999486;28;19921;-81
2023/07/13 10:22:58;;;;;;;;;;;;;;;;;;5000032;28;19936;-82
2023/07/13 10:25:24;;;;;;;;;;;;;;;;;;5016232;28;19971;-82
2023/07/13 10:27:50;;;;;;;;;;;;;;;;;;4999478;28;19971;-83
2023/07/13 10:30:16;;;;;;;;;;;;;;;;;;4999087;28;19921;-83
2023/07/13 10:32:42;;;;;;;;;;;;;;;;;;4999479;28;19972;-82
2023/07/13 10:35:09;;;;;;;;;;;;;;;;;;4999550;28;19921;-83
2023/07/13 10:37:36;;;;;;;;;;;;;;;;;;5015882;28;19966;-80
2023/07/13 10:40:03;;;;;;;;;;;;;;;;;;4999245;28;19921;-82
2023/07/13 10:42:30;;;;;;;;;;;;;;;;;;4999310;28;19921;-83
2023/07/13 10:44:56;;;;;;;;;;;;;;;;;;5016202;28;19921;-82
2023/07/13 10:47:22;;;;;;;;;;;;;;;;;;4999437;28;19921;-82
2023/07/13 10:49:48;;;;;;;;;;;;;;;;;;4999018;28;19976;-83
2023/07/13 10:52:14;;;;;;;;;;;;;;;;;;4999457;28;19925;-82
2023/07/13 10:54:42;;;;;;;;;;;;;;;;;;5015491;28;19925;-82
2023/07/13 10:57:09;;;;;;;;;;;;;;;;;;4999390;28;19921;-81
2023/07/13 10:59:35;;;;;;;;;;;;;;;;;;4998938;28;20393;-83
2023/07/13 11:02:01;;;;;;;;;;;;;;;;;;4999319;28;19983;-83
2023/07/13 11:04:27;;;;;;;;;;;;;;;;;;5015427;28;19928;-82
2023/07/13 11:06:53;;;;;;;;;;;;;;;;;;4999345;28;19985;-82
2023/07/13 11:09:19;;;;;;;;;;;;;;;;;;5015697;28;20312;-82
2023/07/13 11:11:45;;;;;;;;;;;;;;;;;;4998079;28;20043;-82
2023/07/13 11:14:11;;;;;;;;;;;;;;;;;;4997981;28;19928;-82
2023/07/13 11:16:37;;;;;;;;;;;;;;;;;;4998380;28;19928;-81
2023/07/13 11:19:03;;;;;;;;;;;;;;;;;;5014077;28;19960;-83
2023/07/13 11:21:30;;;;;;;;;;;;;;;;;;4997337;28;20363;-83
2023/07/13 11:23:56;;;;;;;;;;;;;;;;;;4997657;28;19921;-82
2023/07/13 11:26:22;;;;;;;;;;;;;;;;;;5005490;28;19928;-83
2023/07/13 11:28:48;;;;;;;;;;;;;;;;;;4982037;28;20351;-84
2023/07/13 11:31:15;;;;;;;;;;;;;;;;;;4997701;28;19983;-82
2023/07/13 11:33:42;;;;;;;;;;;;;;;;;;4998158;28;20295;-82
2023/07/13 11:36:07;;;;;;;;;;;;;;;;;;4998488;28;20020;-82
2023/07/13 11:38:33;;;;;;;;;;;;;;;;;;4998059;28;19964;-82
2023/07/13 11:41:00;;;;;;;;;;;;;;;;;;5013765;28;19925;-82
2023/07/13 11:43:26;;;;;;;;;;;;;;;;;;4998017;28;20396;-82
2023/07/13 11:45:52;;;;;;;;;;;;;;;;;;4997754;28;20276;-83
2023/07/13 11:48:18;;;;;;;;;;;;;;;;;;4998419;28;19927;-83
2023/07/13 11:50:44;;;;;;;;;;;;;;;;;;4997765;28;19983;-82
2023/07/13 11:53:10;;;;;;;;;;;;;;;;;;4997813;28;19925;-82
2023/07/13 11:55:36;;;;;;;;;;;;;;;;;;5017149;28;19928;-82
2023/07/13 11:58:03;;;;;;;;;;;;;;;;;;5001020;28;20483;-83
2023/07/13 12:00:29;;;;;;;;;;;;;;;;;;5000425;28;19921;-82
2023/07/13 12:02:54;;;;;;;;;;;;;;;;;;5001415;28;20383;-81
2023/07/13 12:05:20;;;;;;;;;;;;;;;;;;5000757;28;19929;-82
2023/07/13 12:07:46;;;;;;;;;;;;;;;;;;5000704;28;19921;-82
2023/07/13 12:10:12;;;;;;;;;;;;;;;;;;4917882;28;2362047;-82
2023/07/13 12:12:39;;;;;;;;;;;;;;;;;;5001710;28;20562;-82
2023/07/13 12:15:05;;;;;;;;;;;;;;;;;;5002050;28;19925;-83
2023/07/13 12:17:31;;;;;;;;;;;;;;;;;;5017928;28;19921;-81
2023/07/13 12:19:57;;;;;;;;;;;;;;;;;;5017799;28;19929;-83
2023/07/13 12:22:23;;;;;;;;;;;;;;;;;;5017930;28;19971;-83
2023/07/13 12:24:49;;;;;;;;;;;;;;;;;;5001809;28;19920;-83
2023/07/13 12:27:15;;;;;;;;;;;;;;;;;;5001777;28;20083;-82
2023/07/13 12:29:41;;;;;;;;;;;;;;;;;;5001450;28;20371;-83
2023/07/13 12:32:07;;;;;;;;;;;;;;;;;;5001648;28;19925;-83
2023/07/13 12:34:34;;;;;;;;;;;;;;;;;;5001824;28;19928;-82
2023/07/13 12:37:00;;;;;;;;;;;;;;;;;;5017887;28;19948;-84
2023/07/13 12:39:26;;;;;;;;;;;;;;;;;;5001521;28;19922;-84
2023/07/13 12:41:52;;;;;;;;;;;;;;;;;;5001701;28;19953;-82
2023/07/13 12:44:18;;;;;;;;;;;;;;;;;;5001872;28;19971;-83
2023/07/13 12:46:44;;;;;;;;;;;;;;;;;;5001444;28;19921;-83
2023/07/13 12:49:10;;;;;;;;;;;;;;;;;;5001578;28;20024;-83
2023/07/13 12:51:36;;;;;;;;;;;;;;;;;;5001093;28;19965;-82
2023/07/13 12:54:02;;;;;;;;;;;;;;;;;;5001368;28;19921;-82
2023/07/13 12:56:30;;;;;;;;;;;;;;;;;;5017537;28;20363;-83
2023/07/13 12:58:56;;;;;;;;;;;;;;;;;;5001143;28;19920;-83
2023/07/13 13:01:23;;;;;;;;;;;;;;;;;;4992027;28;19968;-83
2023/07/13 13:03:51;;;;;;;;;;;;;;;;;;4982011;28;19944;-83
2023/07/13 13:06:18;;;;;;;;;;;;;;;;;;4980392;28;19929;-84
2023/07/13 13:08:44;;;;;;;;;;;;;;;;;;4981257;28;20041;-83
2023/07/13 13:11:10;;;;;;;;;;;;;;;;;;4997118;28;20435;-83
2023/07/13 13:13:36;;;;;;;;;;;;;;;;;;4980811;28;19969;-83
2023/07/13 13:16:05;;;;;;;;;;;;;;;;;;4980995;28;20000;-83
2023/07/13 13:18:31;;;;;;;;;;;;;;;;;;4981464;28;19971;-84
2023/07/13 13:20:57;;;;;;;;;;;;;;;;;;4980762;28;19925;-83
2023/07/13 13:23:25;;;;;;;;;;;;;;;;;;4981566;28;19921;-83
2023/07/13 13:25:51;;;;;;;;;;;;;;;;;;4981832;28;20415;-81
2023/07/13 13:28:17;;;;;;;;;;;;;;;;;;4981781;28;20372;-83
2023/07/13 13:30:43;;;;;;;;;;;;;;;;;;4997731;28;19995;-82
2023/07/13 13:33:09;;;;;;;;;;;;;;;;;;4989131;28;20433;-81
2023/07/13 13:35:35;;;;;;;;;;;;;;;;;;5017344;28;19941;-84
2023/07/13 13:38:01;;;;;;;;;;;;;;;;;;5001302;28;20015;-82
2023/07/13 13:40:27;;;;;;;;;;;;;;;;;;5000279;28;19921;-82
2023/07/13 13:45:39;;;;;;;;;;;;;;;;;;5008756;28;20374;-83
2023/07/13 13:48:05;;;;;;;;;;;;;;;;;;5000855;28;19922;-82
2023/07/13 13:50:32;;;;;;;;;;;;;;;;;;5000027;28;19935;-82
2023/07/13 13:52:58;;;;;;;;;;;;;;;;;;5000415;28;19921;-82
2023/07/13 13:55:24;;;;;;;;;;;;;;;;;;5000534;28;20051;-82
2023/07/13 13:57:50;;;;;;;;;;;;;;;;;;5016751;28;19972;-83
2023/07/13 14:00:24;;;;;;;;;;;;;;;;;;5000224;28;19968;-83
2023/07/13 14:02:52;;;;;;;;;;;;;;;;;;5016764;28;19948;-82
2023/07/13 14:05:19;;;;;;;;;;;;;;;;;;5000529;28;20368;-82
2023/07/13 14:07:45;;;;;;;;;;;;;;;;;;5016910;28;20410;-81
2023/07/13 14:10:11;;;;;;;;;;;;;;;;;;4999784;28;20398;-82
2023/07/13 14:12:37;;;;;;;;;;;;;;;;;;5000015;28;20020;-83
2023/07/13 14:15:03;;;;;;;;;;;;;;;;;;4999941;28;20012;-82
2023/07/13 14:17:29;;;;;;;;;;;;;;;;;;4999682;28;19921;-81
2023/07/13 14:19:57;;;;;;;;;;;;;;;;;;5015859;28;19928;-82
2023/07/13 14:22:23;;;;;;;;;;;;;;;;;;4999937;28;19948;-82
2023/07/13 14:24:49;;;;;;;;;;;;;;;;;;5016317;28;19921;-82
2023/07/13 14:27:15;;;;;;;;;;;;;;;;;;4999975;28;19921;-81
2023/07/13 14:29:41;;;;;;;;;;;;;;;;;;5015927;28;19940;-82
2023/07/13 14:32:07;;;;;;;;;;;;;;;;;;4999898;28;19940;-83
2023/07/13 14:34:33;;;;;;;;;;;;;;;;;;5000099;28;19925;-83
2023/07/13 14:36:59;;;;;;;;;;;;;;;;;;5016326;28;19921;-82
2023/07/13 14:39:25;;;;;;;;;;;;;;;;;;4999402;28;19931;-82
2023/07/13 14:41:51;;;;;;;;;;;;;;;;;;4999347;28;20023;-82
2023/07/13 14:44:17;;;;;;;;;;;;;;;;;;5015656;28;20419;-81
2023/07/13 14:46:43;;;;;;;;;;;;;;;;;;4999394;28;19921;-80
2023/07/13 14:49:09;;;;;;;;;;;;;;;;;;4999146;28;19922;-81
2023/07/13 14:51:34;;;;;;;;;;;;;;;;;;5014361;28;19972;-80
2023/07/13 14:54:00;;;;;;;;;;;;;;;;;;5015340;28;20292;-80
2023/07/13 14:56:26;;;;;;;;;;;;;;;;;;4998730;28;19921;-80
2023/07/13 14:58:53;;;;;;;;;;;;;;;;;;5014701;28;19921;-80
2023/07/13 15:01:19;;;;;;;;;;;;;;;;;;5014803;28;20011;-80
2023/07/13 15:03:46;;;;;;;;;;;;;;;;;;4998686;28;19968;-80
2023/07/13 15:06:12;;;;;;;;;;;;;;;;;;5014724;28;19921;-81
2023/07/13 15:08:37;;;;;;;;;;;;;;;;;;4998776;28;19921;-80
2023/07/13 15:11:04;;;;;;;;;;;;;;;;;;4998075;28;19932;-80
2023/07/13 15:13:30;;;;;;;;;;;;;;;;;;4998584;28;19924;-81
2023/07/13 15:15:56;;;;;;;;;;;;;;;;;;4998558;28;19921;-80
2023/07/13 15:18:22;;;;;;;;;;;;;;;;;;4998446;28;20344;-80
2023/07/13 15:20:48;;;;;;;;;;;;;;;;;;5014381;28;19921;-81
2023/07/13 15:23:14;;;;;;;;;;;;;;;;;;5014765;28;19971;-79
2023/07/13 15:25:40;;;;;;;;;;;;;;;;;;4998477;28;19929;-81
2023/07/13 15:28:06;;;;;;;;;;;;;;;;;;4997919;28;19921;-80
2023/07/13 15:30:32;;;;;;;;;;;;;;;;;;5014199;28;19921;-81
2023/07/13 15:32:58;;;;;;;;;;;;;;;;;;4997719;28;19925;-81
2023/07/13 15:35:24;;;;;;;;;;;;;;;;;;4998178;28;19921;-79
2023/07/13 15:37:50;;;;;;;;;;;;;;;;;;5014623;28;20448;-82
2023/07/13 15:40:16;;;;;;;;;;;;;;;;;;4994626;28;19922;-81
2023/07/13 15:42:42;;;;;;;;;;;;;;;;;;4998379;28;19928;-81
2023/07/13 15:45:09;;;;;;;;;;;;;;;;;;5014299;28;19940;-83
2023/07/13 15:47:35;;;;;;;;;;;;;;;;;;4979507;28;19964;-81
2023/07/13 15:50:02;;;;;;;;;;;;;;;;;;4996240;28;19960;-81
2023/07/13 15:52:28;;;;;;;;;;;;;;;;;;5014664;28;20403;-82
2023/07/13 15:54:55;;;;;;;;;;;;;;;;;;5014570;28;19929;-80
2023/07/13 15:57:21;;;;;;;;;;;;;;;;;;5014860;28;19925;-81
2023/07/13 15:59:47;;;;;;;;;;;;;;;;;;5014097;28;19925;-82
2023/07/13 16:02:13;;;;;;;;;;;;;;;;;;5014724;28;19921;-82
2023/07/13 16:04:39;;;;;;;;;;;;;;;;;;5014490;28;19921;-82
2023/07/13 16:07:06;;;;;;;;;;;;;;;;;;4998496;28;20269;-81
2023/07/13 16:09:32;;;;;;;;;;;;;;;;;;5014509;28;19921;-81
2023/07/13 16:11:58;;;;;;;;;;;;;;;;;;4998060;28;20414;-81
2023/07/13 16:14:25;;;;;;;;;;;;;;;;;;4998416;28;19928;-81
2023/07/13 16:16:55;;;;;;;;;;;;;;;;;;5014551;28;20426;-81
2023/07/13 16:19:28;;;;;;;;;;;;;;;;;;4998217;28;19968;-81
2023/07/13 16:21:54;;;;;;;;;;;;;;;;;;4985888;28;19928;-80
2023/07/13 16:24:20;;;;;;;;;;;;;;;;;;5000101;28;20323;-81
2023/07/13 16:26:46;;;;;;;;;;;;;;;;;;5013291;28;19927;-80
2023/07/13 16:29:12;;;;;;;;;;;;;;;;;;4989837;28;20008;-82
2023/07/13 16:31:39;;;;;;;;;;;;;;;;;;5013243;28;19926;-80
2023/07/13 16:34:04;;;;;;;;;;;;;;;;;;4997558;28;19967;-81
2023/07/13 16:36:31;;;;;;;;;;;;;;;;;;4997928;28;19957;-79
2023/07/13 16:38:57;;;;;;;;;;;;;;;;;;4998122;28;20294;-80
2023/07/13 16:41:33;;;;;;;;;;;;;;;;;;4997627;28;20005;-81
2023/07/13 16:43:59;;;;;;;;;;;;;;;;;;4999772;28;20008;-80
2023/07/13 16:46:25;;;;;;;;;;;;;;;;;;5016260;28;20395;-80
2023/07/13 16:48:51;;;;;;;;;;;;;;;;;;5000730;28;19984;-80
2023/07/13 16:51:17;;;;;;;;;;;;;;;;;;5016923;28;19971;-83
2023/07/13 16:53:43;;;;;;;;;;;;;;;;;;5009794;28;20372;-82
2023/07/13 16:56:09;;;;;;;;;;;;;;;;;;5018139;28;19928;-80